Time,TemperatureF,DewpointF,PressureIn,WindDirection,WindDirectionDegrees,WindSpeedMPH,WindSpeedGustMPH,Humidity,HourlyPrecipIn,Conditions,Clouds,dailyrainin,SoftwareType,DateUTC
2013-06-16 00:00:00,77.2,67.5,29.00,North,0,0.0,0.0,72,0.00,CLR,,0.11,WeatherDisplay:10.37,2013-06-16 05:00:00,
2013-06-16 00:05:00,77.2,67.5,29.00,North,0,0.0,0.0,72,0.00,RA,,0.00,WeatherDisplay:10.37,2013-06-16 05:05:00,
2013-06-16 00:10:00,77.2,67.5,29.00,North,0,0.0,0.0,72,0.00,RA,,0.00,WeatherDisplay:10.37,2013-06-16 05:10:00,
2013-06-16 00:15:00,77.2,67.5,29.00,North,0,0.0,0.0,72,0.00,CLR,,0.00,WeatherDisplay:10.37,2013-06-16 05:15:00,
2013-06-16 00:20:00,77.2,67.5,29.00,North,0,0.0,0.0,72,0.00,CLR,,0.00,WeatherDisplay:10.37,2013-06-16 05:20:00,
2013-06-16 00:25:00,77.2,67.5,29.00,North,0,0.0,0.0,72,0.00,CLR,,0.00,WeatherDisplay:10.37,2013-06-16 05:25:00,
2013-06-16 00:30:00,77.2,67.5,29.00,North,0,0.0,0.0,72,0.00,CLR,,0.00,WeatherDisplay:10.37,2013-06-16 05:30:00,
2013-06-16 00:35:00,77.2,67.5,29.00,North,0,0.0,0.0,72,0.00,CLR,,0.00,WeatherDisplay:10.37,2013-06-16 05:35:00,
2013-06-16 00:40:00,77.2,67.5,29.00,North,0,0.0,0.0,72,0.00,CLR,,0.00,WeatherDisplay:10.37,2013-06-16 05:40:00,
2013-06-16 00:45:00,77.2,67.5,29.00,North,0,0.0,0.0,72,0.00,CLR,,0.00,WeatherDisplay:10.37,2013-06-16 05:45:00,
2013-06-16 00:50:00,77.2,67.5,29.00,North,0,0.0,0.0,72,0.00,CLR,,0.00,WeatherDisplay:10.37,2013-06-16 05:50:00,
2013-06-16 00:55:00,77.2,67.5,29.00,North,0,0.0,0.0,72,0.00,CLR,,0.00,WeatherDisplay:10.37,2013-06-16 05:55:00,
2013-06-16 01:00:00,77.2,67.5,29.00,North,0,0.0,0.0,72,0.00,CLR,,0.00,WeatherDisplay:10.37,2013-06-16 06:00:00,
2013-06-16 01:05:00,77.2,67.5,29.00,North,0,0.0,0.0,72,0.00,CLR,,0.00,WeatherDisplay:10.37,2013-06-16 06:05:00,
2013-06-16 01:10:00,77.2,67.5,29.00,North,0,0.0,0.0,72,0.00,CLR,,0.00,WeatherDisplay:10.37,2013-06-16 06:10:00,
2013-06-16 01:15:00,77.2,67.5,29.00,North,0,0.0,0.0,72,0.00,CLR,,0.00,WeatherDisplay:10.37,2013-06-16 06:15:00,
2013-06-16 01:20:00,77.2,67.5,29.00,North,0,0.0,0.0,72,0.00,CLR,,0.00,WeatherDisplay:10.37,2013-06-16 06:20:00,
2013-06-16 01:25:00,77.2,67.5,29.00,North,0,0.0,0.0,72,0.00,CLR,,0.00,WeatherDisplay:10.37,2013-06-16 06:25:00,
2013-06-16 01:30:00,77.2,67.5,29.00,North,0,0.0,0.0,72,0.00,CLR,,0.00,WeatherDisplay:10.37,2013-06-16 06:30:00,
2013-06-16 01:35:00,77.2,67.5,29.00,North,0,0.0,0.0,72,0.00,CLR,,0.00,WeatherDisplay:10.37,2013-06-16 06:35:00,
2013-06-16 01:40:00,77.2,67.5,29.00,North,0,0.0,0.0,72,0.00,CLR,,0.00,WeatherDisplay:10.37,2013-06-16 06:40:00,
2013-06-16 01:45:00,77.2,67.5,29.00,North,0,0.0,0.0,72,0.00,CLR,,0.00,WeatherDisplay:10.37,2013-06-16 06:45:00,
2013-06-16 01:50:00,77.2,67.5,29.00,North,0,0.0,0.0,72,0.00,CLR,,0.00,WeatherDisplay:10.37,2013-06-16 06:50:00,
2013-06-16 01:55:00,77.2,67.5,29.00,North,0,0.0,0.0,72,0.00,CLR,,0.00,WeatherDisplay:10.37,2013-06-16 06:55:00,
2013-06-16 02:00:00,77.2,67.5,29.00,North,0,0.0,0.0,72,0.00,CLR,,0.00,WeatherDisplay:10.37,2013-06-16 07:00:00,
2013-06-16 02:05:00,77.2,67.5,29.00,North,0,0.0,0.0,72,0.00,CLR,,0.00,WeatherDisplay:10.37,2013-06-16 07:05:00,
2013-06-16 02:10:00,77.2,67.5,29.00,North,0,0.0,0.0,72,0.00,CLR,,0.00,WeatherDisplay:10.37,2013-06-16 07:10:00,
2013-06-16 02:15:00,77.2,67.5,29.00,North,0,0.0,0.0,72,0.00,CLR,,0.00,WeatherDisplay:10.37,2013-06-16 07:15:00,
2013-06-16 02:20:00,77.2,67.5,29.00,North,0,0.0,0.0,72,0.00,CLR,,0.00,WeatherDisplay:10.37,2013-06-16 07:20:00,
2013-06-16 02:25:00,77.2,67.5,29.00,North,0,0.0,0.0,72,0.00,CLR,,0.00,WeatherDisplay:10.37,2013-06-16 07:25:00,
2013-06-16 02:30:00,77.2,67.5,29.00,North,0,0.0,0.0,72,0.00,CLR,,0.00,WeatherDisplay:10.37,2013-06-16 07:30:00,
2013-06-16 02:35:00,77.2,67.5,29.00,North,0,0.0,0.0,72,0.00,CLR,,0.00,WeatherDisplay:10.37,2013-06-16 07:35:00,
2013-06-16 02:40:00,77.2,67.5,29.00,North,0,0.0,0.0,72,0.00,CLR,,0.00,WeatherDisplay:10.37,2013-06-16 07:40:00,
2013-06-16 02:45:00,77.2,67.5,29.00,North,0,0.0,0.0,72,0.00,CLR,,0.00,WeatherDisplay:10.37,2013-06-16 07:45:00,
2013-06-16 02:50:00,77.2,67.5,29.00,North,0,0.0,0.0,72,0.00,CLR,,0.00,WeatherDisplay:10.37,2013-06-16 07:50:00,
2013-06-16 02:55:00,77.2,67.5,29.00,North,0,0.0,0.0,72,0.00,CLR,,0.00,WeatherDisplay:10.37,2013-06-16 07:55:00,
2013-06-16 03:00:00,77.2,67.5,29.00,North,0,0.0,0.0,72,0.00,CLR,,0.00,WeatherDisplay:10.37,2013-06-16 08:00:00,
2013-06-16 03:05:00,77.2,67.5,29.00,North,0,0.0,0.0,72,0.00,CLR,,0.00,WeatherDisplay:10.37,2013-06-16 08:05:00,
2013-06-16 08:51:00,72.0,70.4,29.07,WSW,245,7.6,10.4,95,0.00,CLR,,0.01,WeatherDisplay:10.37,2013-06-16 13:51:00,
2013-06-16 08:56:00,72.0,70.1,29.07,SW,222,6.0,9.2,94,0.00,CLR,,0.01,WeatherDisplay:10.37,2013-06-16 13:56:00,
2013-06-16 09:01:00,72.1,70.9,29.07,WSW,245,6.9,12.7,96,0.00,CLR,,0.01,WeatherDisplay:10.37,2013-06-16 14:01:00,
2013-06-16 09:06:00,72.3,71.1,29.07,SW,222,4.5,9.2,96,0.00,CLR,,0.01,WeatherDisplay:10.37,2013-06-16 14:06:00,
2013-06-16 09:11:00,72.1,70.9,29.08,WNW,290,6.0,8.1,96,0.00,CLR,,0.01,WeatherDisplay:10.37,2013-06-16 14:11:00,
2013-06-16 09:16:00,72.1,70.9,29.07,WSW,245,6.0,8.1,96,0.00,CLR,,0.01,WeatherDisplay:10.37,2013-06-16 14:16:00,
2013-06-16 09:21:00,72.3,71.1,29.07,WSW,245,5.4,8.1,96,0.00,CLR,,0.01,WeatherDisplay:10.37,2013-06-16 14:21:00,
2013-06-16 09:26:00,72.5,71.0,29.07,WSW,245,5.4,8.1,95,0.00,CLR,,0.01,WeatherDisplay:10.37,2013-06-16 14:26:00,
2013-06-16 09:31:00,72.7,71.2,29.07,WNW,290,5.4,8.1,95,0.00,CLR,,0.01,WeatherDisplay:10.37,2013-06-16 14:31:00,
2013-06-16 09:36:00,72.9,71.0,29.07,WSW,245,4.5,5.8,94,0.00,CLR,,0.01,WeatherDisplay:10.37,2013-06-16 14:36:00,
2013-06-16 09:41:00,73.2,70.4,29.07,WSW,245,6.0,6.0,91,0.00,CLR,,0.01,WeatherDisplay:10.37,2013-06-16 14:41:00,
2013-06-16 09:46:00,73.2,71.1,29.08,WSW,245,6.9,10.4,93,0.00,CLR,,0.01,WeatherDisplay:10.37,2013-06-16 14:46:00,
2013-06-16 09:51:00,73.2,70.4,29.08,WNW,290,4.5,9.2,91,0.00,CLR,,0.01,WeatherDisplay:10.37,2013-06-16 14:51:00,
2013-06-16 09:56:00,73.6,71.7,29.07,WSW,245,4.5,8.1,94,0.00,CLR,,0.01,WeatherDisplay:10.37,2013-06-16 14:56:00,
2013-06-16 10:01:00,73.4,70.9,29.07,WSW,245,6.9,9.2,92,0.00,CLR,,0.01,WeatherDisplay:10.37,2013-06-16 15:01:00,
2013-06-16 10:06:00,73.4,70.9,29.07,WSW,245,6.9,8.1,92,0.00,CLR,,0.01,WeatherDisplay:10.37,2013-06-16 15:06:00,
2013-06-16 10:11:00,74.1,71.6,29.07,WSW,245,6.0,8.1,92,0.00,CLR,,0.01,WeatherDisplay:10.37,2013-06-16 15:11:00,
2013-06-16 10:16:00,74.3,71.8,29.07,West,268,4.5,9.2,92,0.00,CLR,,0.01,WeatherDisplay:10.37,2013-06-16 15:16:00,
2013-06-16 10:21:00,74.7,71.5,29.07,SW,222,6.0,9.2,90,0.00,CLR,,0.01,WeatherDisplay:10.37,2013-06-16 15:21:00,
2013-06-16 10:26:00,75.2,72.4,29.07,WSW,245,5.4,6.9,91,0.00,CLR,,0.01,WeatherDisplay:10.37,2013-06-16 15:26:00,
2013-06-16 10:31:00,75.0,71.2,29.07,WSW,245,7.6,9.2,88,0.00,CLR,,0.01,WeatherDisplay:10.37,2013-06-16 15:31:00,
2013-06-16 10:36:00,75.4,71.9,29.06,WSW,245,6.9,8.1,89,0.00,CLR,,0.01,WeatherDisplay:10.37,2013-06-16 15:36:00,
2013-06-16 10:41:00,76.1,72.6,29.07,WNW,290,4.5,9.2,89,0.00,CLR,,0.01,WeatherDisplay:10.37,2013-06-16 15:41:00,
2013-06-16 10:46:00,77.0,72.5,29.06,WSW,245,6.0,10.4,86,0.00,CLR,,0.01,WeatherDisplay:10.37,2013-06-16 15:46:00,
2013-06-16 10:51:00,77.0,72.5,29.06,WSW,245,6.9,9.2,86,0.00,CLR,,0.01,WeatherDisplay:10.37,2013-06-16 15:51:00,
2013-06-16 10:56:00,77.0,71.4,29.07,WSW,245,5.4,8.1,83,0.00,CLR,,0.01,WeatherDisplay:10.37,2013-06-16 15:56:00,
2013-06-16 11:01:00,76.6,71.4,29.06,WNW,290,3.8,5.8,84,0.00,CLR,,0.01,WeatherDisplay:10.37,2013-06-16 16:01:00,
2013-06-16 11:06:00,76.6,71.4,29.06,WNW,290,3.8,5.8,84,0.00,CLR,,0.01,WeatherDisplay:10.37,2013-06-16 16:06:00,
2013-06-16 11:11:00,77.4,72.1,29.06,West,268,6.0,8.1,84,0.00,CLR,,0.01,WeatherDisplay:10.37,2013-06-16 16:11:00,
2013-06-16 11:16:00,78.1,71.4,29.06,WSW,245,3.8,8.1,80,0.00,CLR,,0.01,WeatherDisplay:10.37,2013-06-16 16:16:00,
2013-06-16 11:21:00,78.1,71.0,29.06,SW,222,3.1,6.9,79,0.00,CLR,,0.01,WeatherDisplay:10.37,2013-06-16 16:21:00,
2013-06-16 11:26:00,77.2,70.9,29.06,WNW,290,3.1,6.9,81,0.00,CLR,,0.01,WeatherDisplay:10.37,2013-06-16 16:26:00,
2013-06-16 11:31:00,77.0,70.7,29.06,WNW,290,3.8,5.8,81,0.00,CLR,,0.01,WeatherDisplay:10.37,2013-06-16 16:31:00,
2013-06-16 11:36:00,77.0,71.1,29.06,WNW,290,3.1,4.6,82,0.00,CLR,,0.01,WeatherDisplay:10.37,2013-06-16 16:36:00,
2013-06-16 11:41:00,77.5,70.5,29.06,WSW,245,6.9,9.2,79,0.00,CLR,,0.01,WeatherDisplay:10.37,2013-06-16 16:41:00,
2013-06-16 11:46:00,77.4,70.7,29.06,WNW,290,3.8,6.9,80,0.00,CLR,,0.01,WeatherDisplay:10.37,2013-06-16 16:46:00,
2013-06-16 11:51:00,77.0,70.4,29.06,WNW,290,3.1,4.6,80,0.00,CLR,,0.01,WeatherDisplay:10.37,2013-06-16 16:51:00,
2013-06-16 11:56:00,76.8,70.9,29.06,WSW,245,6.0,8.1,82,0.00,CLR,,0.01,WeatherDisplay:10.37,2013-06-16 16:56:00,
2013-06-16 12:01:00,76.3,71.1,29.06,WSW,245,6.0,11.5,84,0.00,CLR,,0.01,WeatherDisplay:10.37,2013-06-16 17:01:00,
2013-06-16 12:06:00,76.3,71.1,29.06,WSW,245,6.0,10.4,84,0.00,CLR,,0.01,WeatherDisplay:10.37,2013-06-16 17:06:00,
2013-06-16 12:11:00,75.6,70.7,29.06,WSW,245,5.4,10.4,85,0.00,CLR,,0.01,WeatherDisplay:10.37,2013-06-16 17:11:00,
2013-06-16 12:16:00,75.2,70.0,29.06,WNW,290,4.5,6.9,84,0.00,CLR,,0.01,WeatherDisplay:10.37,2013-06-16 17:16:00,
2013-06-16 12:21:00,75.4,70.6,29.06,WSW,245,6.0,10.4,85,0.00,CLR,,0.01,WeatherDisplay:10.37,2013-06-16 17:21:00,
2013-06-16 12:26:00,75.4,70.6,29.06,WNW,290,6.0,8.1,85,0.00,CLR,,0.01,WeatherDisplay:10.37,2013-06-16 17:26:00,
2013-06-16 12:31:00,74.7,70.2,29.06,WNW,290,9.2,13.8,86,0.00,CLR,,0.01,WeatherDisplay:10.37,2013-06-16 17:31:00,
2013-06-16 12:36:00,73.8,71.0,29.06,WSW,245,9.2,10.4,91,0.00,CLR,,0.01,WeatherDisplay:10.37,2013-06-16 17:36:00,
2013-06-16 12:41:00,73.2,71.7,29.06,WSW,245,7.6,12.7,95,0.00,CLR,,0.01,WeatherDisplay:10.37,2013-06-16 17:41:00,
2013-06-16 12:46:00,73.2,72.0,29.06,WSW,245,6.9,10.4,96,0.00,CLR,,0.01,WeatherDisplay:10.37,2013-06-16 17:46:00,
2013-06-16 12:51:00,73.8,72.5,29.06,West,268,6.9,11.5,96,0.00,CLR,,0.01,WeatherDisplay:10.37,2013-06-16 17:51:00,
2013-06-16 12:56:00,74.1,72.9,29.06,WSW,245,6.9,9.2,96,0.00,CLR,,0.01,WeatherDisplay:10.37,2013-06-16 17:56:00,
2013-06-16 13:01:00,75.2,73.4,29.06,WSW,245,10.7,13.8,94,0.00,CLR,,0.01,WeatherDisplay:10.37,2013-06-16 18:01:00,
2013-06-16 13:06:00,75.2,73.4,29.06,WSW,245,10.7,13.8,94,0.00,CLR,,0.01,WeatherDisplay:10.37,2013-06-16 18:06:00,
2013-06-16 13:11:00,76.1,72.6,29.06,WSW,245,9.2,13.8,89,0.00,CLR,,0.01,WeatherDisplay:10.37,2013-06-16 18:11:00,
2013-06-16 13:16:00,76.1,73.0,29.05,WNW,290,10.7,13.8,90,0.00,CLR,,0.01,WeatherDisplay:10.37,2013-06-16 18:16:00,
2013-06-16 13:21:00,76.3,71.8,29.05,WSW,245,9.8,15.0,86,0.00,CLR,,0.01,WeatherDisplay:10.37,2013-06-16 18:21:00,
2013-06-16 13:26:00,75.7,71.3,29.05,WSW,245,9.8,15.0,86,0.00,CLR,,0.01,WeatherDisplay:10.37,2013-06-16 18:26:00,
2013-06-16 13:31:00,75.9,71.8,29.05,WSW,245,9.8,13.8,87,0.00,CLR,,0.01,WeatherDisplay:10.37,2013-06-16 18:31:00,
2013-06-16 13:36:00,77.5,73.0,29.05,WSW,245,8.3,12.7,86,0.00,CLR,,0.01,WeatherDisplay:10.37,2013-06-16 18:36:00,
2013-06-16 13:41:00,77.5,71.6,29.05,WSW,245,7.6,17.3,82,0.00,CLR,,0.01,WeatherDisplay:10.37,2013-06-16 18:41:00,
2013-06-16 13:46:00,77.4,71.4,29.06,WSW,245,11.4,15.0,82,0.00,CLR,,0.01,WeatherDisplay:10.37,2013-06-16 18:46:00,
2013-06-16 13:51:00,77.5,72.7,29.06,WSW,245,9.8,15.0,85,0.00,CLR,,0.01,WeatherDisplay:10.37,2013-06-16 18:51:00,
2013-06-16 13:56:00,77.4,71.8,29.05,WSW,245,8.3,15.0,83,0.00,CLR,,0.01,WeatherDisplay:10.37,2013-06-16 18:56:00,
2013-06-16 14:01:00,77.2,71.3,29.05,WSW,245,12.1,16.1,82,0.00,CLR,,0.01,WeatherDisplay:10.37,2013-06-16 19:01:00,
2013-06-16 14:06:00,77.2,71.3,29.05,WSW,245,12.1,16.1,82,0.00,CLR,,0.01,WeatherDisplay:10.37,2013-06-16 19:06:00,
2013-06-16 14:11:00,77.2,71.6,29.05,WSW,245,13.7,16.1,83,0.00,CLR,,0.01,WeatherDisplay:10.37,2013-06-16 19:11:00,
2013-06-16 14:16:00,77.2,71.6,29.05,SW,222,10.7,16.1,83,0.00,CLR,,0.01,WeatherDisplay:10.37,2013-06-16 19:16:00,
2013-06-16 14:21:00,77.0,71.4,29.05,WSW,245,8.3,11.5,83,0.00,CLR,,0.01,WeatherDisplay:10.37,2013-06-16 19:21:00,
2013-06-16 14:26:00,76.6,72.1,29.05,WSW,245,6.0,13.8,86,0.00,CLR,,0.01,WeatherDisplay:10.37,2013-06-16 19:26:00,
2013-06-16 14:31:00,77.0,71.8,29.05,WSW,245,10.7,12.7,84,0.00,CLR,,0.01,WeatherDisplay:10.37,2013-06-16 19:31:00,
2013-06-16 14:36:00,76.6,71.4,29.05,WSW,245,8.3,13.8,84,0.00,CLR,,0.01,WeatherDisplay:10.37,2013-06-16 19:36:00,
2013-06-16 14:41:00,77.0,72.1,29.05,WSW,245,9.8,12.7,85,0.00,CLR,,0.01,WeatherDisplay:10.37,2013-06-16 19:41:00,
2013-06-16 14:46:00,77.7,71.4,29.04,WSW,245,9.8,13.8,81,0.00,CLR,,0.01,WeatherDisplay:10.37,2013-06-16 19:46:00,
2013-06-16 14:51:00,78.4,72.1,29.05,WSW,245,10.7,15.0,81,0.00,CLR,,0.01,WeatherDisplay:10.37,2013-06-16 19:51:00,
2013-06-16 14:56:00,78.3,71.9,29.05,WSW,245,9.2,13.8,81,0.00,CLR,,0.01,WeatherDisplay:10.37,2013-06-16 19:56:00,
2013-06-16 15:01:00,78.1,72.1,29.04,WSW,245,8.3,10.4,82,0.00,CLR,,0.01,WeatherDisplay:10.37,2013-06-16 20:01:00,
2013-06-16 15:06:00,78.1,72.1,29.04,WSW,245,8.3,10.4,82,0.00,CLR,,0.01,WeatherDisplay:10.37,2013-06-16 20:06:00,
2013-06-16 15:11:00,78.3,71.6,29.04,WSW,245,7.6,10.4,80,0.00,CLR,,0.01,WeatherDisplay:10.37,2013-06-16 20:11:00,
2013-06-16 15:16:00,78.3,71.2,29.04,WSW,245,9.8,13.8,79,0.00,CLR,,0.01,WeatherDisplay:10.37,2013-06-16 20:16:00,
2013-06-16 15:21:00,78.1,71.8,29.03,WSW,245,7.6,10.4,81,0.00,CLR,,0.01,WeatherDisplay:10.37,2013-06-16 20:21:00,
2013-06-16 15:26:00,78.4,71.4,29.04,SW,222,6.9,10.4,79,0.00,CLR,,0.01,WeatherDisplay:10.37,2013-06-16 20:26:00,
2013-06-16 15:31:00,78.3,71.2,29.03,WSW,245,9.2,12.7,79,0.00,CLR,,0.01,WeatherDisplay:10.37,2013-06-16 20:31:00,
2013-06-16 15:36:00,78.4,71.4,29.03,WSW,245,9.2,12.7,79,0.00,CLR,,0.01,WeatherDisplay:10.37,2013-06-16 20:36:00,
2013-06-16 15:41:00,78.4,71.0,29.03,WSW,245,9.2,13.8,78,0.00,CLR,,0.01,WeatherDisplay:10.37,2013-06-16 20:41:00,
2013-06-16 15:46:00,78.4,71.0,29.03,SW,222,8.3,12.7,78,0.00,CLR,,0.01,WeatherDisplay:10.37,2013-06-16 20:46:00,
2013-06-16 15:51:00,79.3,71.1,29.03,West,268,8.3,11.5,76,0.00,CLR,,0.01,WeatherDisplay:10.37,2013-06-16 20:51:00,
2013-06-16 15:56:00,79.2,71.3,29.02,WSW,245,9.8,12.7,77,0.00,CLR,,0.01,WeatherDisplay:10.37,2013-06-16 20:56:00,
2013-06-16 16:01:00,79.2,71.7,29.02,WSW,245,8.3,12.7,78,0.00,CLR,,0.01,WeatherDisplay:10.37,2013-06-16 21:01:00,
2013-06-16 16:06:00,79.3,72.6,29.02,WSW,245,5.4,8.1,80,0.00,CLR,,0.01,WeatherDisplay:10.37,2013-06-16 21:06:00,
2013-06-16 16:11:00,79.9,71.6,29.02,WNW,290,6.0,10.4,76,0.00,CLR,,0.01,WeatherDisplay:10.37,2013-06-16 21:11:00,
2013-06-16 16:16:00,80.2,71.6,29.02,WSW,245,6.0,11.5,75,0.00,CLR,,0.01,WeatherDisplay:10.37,2013-06-16 21:16:00,
2013-06-16 16:21:00,80.6,72.3,29.02,WSW,245,6.0,10.4,76,0.00,CLR,,0.01,WeatherDisplay:10.37,2013-06-16 21:21:00,
2013-06-16 16:26:00,79.7,70.3,29.02,WSW,245,6.9,8.1,73,0.00,CLR,,0.01,WeatherDisplay:10.37,2013-06-16 21:26:00,
2013-06-16 16:31:00,79.9,72.4,29.02,WSW,245,6.0,8.1,78,0.00,CLR,,0.01,WeatherDisplay:10.37,2013-06-16 21:31:00,
2013-06-16 16:36:00,79.9,71.2,29.01,WSW,245,6.0,10.4,75,0.00,CLR,,0.01,WeatherDisplay:10.37,2013-06-16 21:36:00,
2013-06-16 16:41:00,80.1,71.0,29.01,WSW,245,5.4,10.4,74,0.00,CLR,,0.01,WeatherDisplay:10.37,2013-06-16 21:41:00,
2013-06-16 16:46:00,80.2,72.0,29.01,WSW,245,6.9,9.2,76,0.00,CLR,,0.01,WeatherDisplay:10.37,2013-06-16 21:46:00,
2013-06-16 16:51:00,80.6,71.1,29.01,WSW,245,8.3,10.4,73,0.00,CLR,,0.01,WeatherDisplay:10.37,2013-06-16 21:51:00,
2013-06-16 16:56:00,80.6,71.9,29.01,WSW,245,8.3,11.5,75,0.00,CLR,,0.01,WeatherDisplay:10.37,2013-06-16 21:56:00,
2013-06-16 17:01:00,80.8,72.1,29.01,WNW,290,6.0,8.1,75,0.00,CLR,,0.01,WeatherDisplay:10.37,2013-06-16 22:01:00,
2013-06-16 17:06:00,81.0,71.5,29.01,SW,222,7.6,10.4,73,0.00,CLR,,0.01,WeatherDisplay:10.37,2013-06-16 22:06:00,
2013-06-16 17:11:00,80.6,71.9,29.01,WSW,245,6.0,8.1,75,0.00,CLR,,0.01,WeatherDisplay:10.37,2013-06-16 22:11:00,
2013-06-16 17:16:00,80.8,72.5,29.01,WSW,245,6.0,6.9,76,0.00,CLR,,0.01,WeatherDisplay:10.37,2013-06-16 22:16:00,
2013-06-16 17:22:00,81.5,72.0,29.01,WSW,245,7.6,12.7,73,0.00,CLR,,0.01,WeatherDisplay:10.37,2013-06-16 22:22:00,
2013-06-16 17:27:00,81.5,72.0,29.01,WSW,245,5.4,8.1,73,0.00,CLR,,0.01,WeatherDisplay:10.37,2013-06-16 22:27:00,
2013-06-16 17:32:00,80.6,71.5,29.01,WSW,245,5.4,10.4,74,0.00,CLR,,0.01,WeatherDisplay:10.37,2013-06-16 22:32:00,
2013-06-16 17:37:00,80.6,72.7,29.00,WNW,290,3.1,5.8,77,0.00,CLR,,0.01,WeatherDisplay:10.37,2013-06-16 22:37:00,
2013-06-16 17:42:00,80.8,71.3,29.01,WSW,245,5.4,6.9,73,0.00,CLR,,0.01,WeatherDisplay:10.37,2013-06-16 22:42:00,
2013-06-16 17:47:00,81.3,72.2,29.01,WNW,290,6.0,8.1,74,0.00,CLR,,0.01,WeatherDisplay:10.37,2013-06-16 22:47:00,
2013-06-16 17:52:00,81.1,71.3,29.00,WSW,245,4.5,8.1,72,0.00,CLR,,0.01,WeatherDisplay:10.37,2013-06-16 22:52:00,
2013-06-16 17:57:00,81.5,72.0,29.01,WNW,290,4.5,8.1,73,0.00,CLR,,0.01,WeatherDisplay:10.37,2013-06-16 22:57:00,
2013-06-16 18:02:00,81.3,71.8,29.00,WNW,290,3.1,3.5,73,0.00,CLR,,0.01,WeatherDisplay:10.37,2013-06-16 23:02:00,
2013-06-16 18:07:00,80.2,71.6,29.00,WSW,245,6.0,8.1,75,0.00,CLR,,0.01,WeatherDisplay:10.37,2013-06-16 23:07:00,
2013-06-16 18:12:00,81.0,72.3,29.00,WSW,245,3.8,6.9,75,0.00,CLR,,0.01,WeatherDisplay:10.37,2013-06-16 23:12:00,
2013-06-16 18:17:00,81.3,71.8,29.00,WSW,245,3.8,5.8,73,0.00,CLR,,0.01,WeatherDisplay:10.37,2013-06-16 23:17:00,
2013-06-16 18:22:00,81.5,71.6,29.01,WSW,245,7.6,9.2,72,0.00,CLR,,0.01,WeatherDisplay:10.37,2013-06-16 23:22:00,
2013-06-16 18:27:00,80.6,71.5,29.01,WSW,245,3.8,6.9,74,0.00,CLR,,0.01,WeatherDisplay:10.37,2013-06-16 23:27:00,
2013-06-16 18:32:00,80.8,72.1,29.01,WSW,245,3.1,5.8,75,0.00,CLR,,0.01,WeatherDisplay:10.37,2013-06-16 23:32:00,
2013-06-16 18:37:00,81.3,71.8,29.01,WSW,245,4.5,8.1,73,0.00,CLR,,0.01,WeatherDisplay:10.37,2013-06-16 23:37:00,
2013-06-16 18:42:00,81.3,72.2,29.01,WSW,245,5.4,8.1,74,0.00,CLR,,0.01,WeatherDisplay:10.37,2013-06-16 23:42:00,
2013-06-16 18:47:00,80.6,71.9,29.01,WSW,245,5.4,6.9,75,0.00,CLR,,0.01,WeatherDisplay:10.37,2013-06-16 23:47:00,
2013-06-16 18:52:00,80.2,72.4,29.01,WSW,245,3.1,5.8,77,0.00,CLR,,0.01,WeatherDisplay:10.37,2013-06-16 23:52:00,
2013-06-16 18:57:00,80.4,72.5,29.01,WSW,245,3.1,5.8,77,0.00,CLR,,0.01,WeatherDisplay:10.37,2013-06-16 23:57:00,
2013-06-16 19:02:00,80.4,71.8,29.01,WSW,245,3.8,5.8,75,0.00,CLR,,0.01,WeatherDisplay:10.37,2013-06-17 00:02:00,
2013-06-16 19:07:00,80.2,72.0,29.01,WSW,245,3.8,5.8,76,0.00,CLR,,0.01,WeatherDisplay:10.37,2013-06-17 00:07:00,
2013-06-16 19:12:00,79.7,71.8,29.01,West,268,4.5,6.9,77,0.00,CLR,,0.01,WeatherDisplay:10.37,2013-06-17 00:12:00,
2013-06-16 19:17:00,79.2,71.7,29.01,WSW,245,3.8,5.8,78,0.00,CLR,,0.01,WeatherDisplay:10.37,2013-06-17 00:17:00,
2013-06-16 19:22:00,79.0,71.9,29.01,WSW,245,3.1,4.6,79,0.00,CLR,,0.01,WeatherDisplay:10.37,2013-06-17 00:22:00,
2013-06-16 19:27:00,78.8,72.1,29.00,WSW,245,3.1,4.6,80,0.00,CLR,,0.01,WeatherDisplay:10.37,2013-06-17 00:27:00,
2013-06-16 19:32:00,78.8,72.5,29.00,WSW,245,3.1,5.8,81,0.00,CLR,,0.01,WeatherDisplay:10.37,2013-06-17 00:32:00,
2013-06-16 19:37:00,78.6,72.3,29.00,WSW,245,3.1,4.6,81,0.00,CLR,,0.01,WeatherDisplay:10.37,2013-06-17 00:37:00,
2013-06-16 19:42:00,78.6,72.7,29.00,WSW,245,3.1,5.8,82,0.00,CLR,,0.01,WeatherDisplay:10.37,2013-06-17 00:42:00,
2013-06-16 19:47:00,78.6,72.7,29.00,WSW,245,3.8,5.8,82,0.00,CLR,,0.01,WeatherDisplay:10.37,2013-06-17 00:47:00,
2013-06-16 19:52:00,78.4,72.5,29.01,WSW,245,3.1,3.5,82,0.00,CLR,,0.01,WeatherDisplay:10.37,2013-06-17 00:52:00,
2013-06-16 19:57:00,78.3,72.7,29.01,WSW,245,3.1,4.6,83,0.00,CLR,,0.01,WeatherDisplay:10.37,2013-06-17 00:57:00,
2013-06-16 20:02:00,78.3,72.7,29.01,WSW,245,3.1,3.5,83,0.00,CLR,,0.01,WeatherDisplay:10.37,2013-06-17 01:02:00,
2013-06-16 20:07:00,78.3,73.0,29.00,WSW,245,2.2,3.5,84,0.00,CLR,,0.01,WeatherDisplay:10.37,2013-06-17 01:07:00,
2013-06-16 20:12:00,77.5,72.7,29.00,WSW,245,3.1,3.5,85,0.00,CLR,,0.01,WeatherDisplay:10.37,2013-06-17 01:12:00,
2013-06-16 20:17:00,77.4,72.5,29.00,WSW,245,2.2,3.5,85,0.00,CLR,,0.01,WeatherDisplay:10.37,2013-06-17 01:17:00,
2013-06-16 20:22:00,77.0,72.5,29.00,WSW,245,2.2,3.5,86,0.00,CLR,,0.01,WeatherDisplay:10.37,2013-06-17 01:22:00,
2013-06-16 20:27:00,76.8,72.7,29.00,WSW,245,1.6,3.5,87,0.00,CLR,,0.01,WeatherDisplay:10.37,2013-06-17 01:27:00,
2013-06-16 20:32:00,76.5,72.6,29.00,WSW,245,1.6,2.3,88,0.00,CLR,,0.01,WeatherDisplay:10.37,2013-06-17 01:32:00,
2013-06-16 20:37:00,76.1,72.3,29.00,WSW,245,1.6,3.5,88,0.00,CLR,,0.01,WeatherDisplay:10.37,2013-06-17 01:37:00,
2013-06-16 20:40:00,71.4,71.1,29.04,WSW,256,0.0,0.0,99,0.00,CLR,CLR,0.00,WeatherDisplay:10.37,2013-06-17 01:40:00,
2013-06-16 20:42:00,75.9,72.8,29.01,WSW,245,2.2,3.5,90,0.00,CLR,,0.01,WeatherDisplay:10.37,2013-06-17 01:42:00,
2013-06-16 20:45:00,71.6,71.3,29.03,West,279,0.0,1.0,99,0.00,CLR,CLR,0.00,WeatherDisplay:10.37,2013-06-17 01:45:00,
2013-06-16 20:47:00,75.9,73.1,29.01,WSW,245,2.2,3.5,91,0.00,CLR,,0.01,WeatherDisplay:10.37,2013-06-17 01:47:00,
2013-06-16 20:52:00,75.7,72.9,29.01,WSW,245,2.2,3.5,91,0.00,CLR,,0.01,WeatherDisplay:10.37,2013-06-17 01:52:00,
2013-06-16 20:57:00,75.7,73.2,29.01,West,268,2.2,3.5,92,0.00,CLR,,0.01,WeatherDisplay:10.37,2013-06-17 01:57:00,
2013-06-16 21:02:00,75.7,73.6,29.01,WSW,245,3.1,3.5,93,0.00,CLR,,0.01,WeatherDisplay:10.37,2013-06-17 02:02:00,
2013-06-16 21:07:00,75.7,73.6,29.01,WSW,245,3.1,3.5,93,0.00,CLR,,0.01,WeatherDisplay:10.37,2013-06-17 02:07:00,
2013-06-16 21:12:00,75.6,73.7,29.01,WSW,245,3.1,4.6,94,0.00,CLR,,0.01,WeatherDisplay:10.37,2013-06-17 02:12:00,
2013-06-16 21:17:00,75.6,73.7,29.02,WSW,245,3.1,4.6,94,0.00,CLR,,0.01,WeatherDisplay:10.37,2013-06-17 02:17:00,
2013-06-16 21:22:00,75.4,73.5,29.02,WSW,245,2.2,3.5,94,0.00,CLR,,0.01,WeatherDisplay:10.37,2013-06-17 02:22:00,
2013-06-16 21:27:00,75.2,73.7,29.01,WSW,245,2.2,3.5,95,0.00,CLR,,0.01,WeatherDisplay:10.37,2013-06-17 02:27:00,
2013-06-16 21:32:00,75.2,73.7,29.02,WSW,245,1.6,3.5,95,0.00,CLR,,0.01,WeatherDisplay:10.37,2013-06-17 02:32:00,
2013-06-16 21:37:00,75.0,73.5,29.02,WSW,245,2.2,3.5,95,0.00,CLR,,0.01,WeatherDisplay:10.37,2013-06-17 02:37:00,
2013-06-16 21:42:00,74.8,73.6,29.02,WSW,245,2.2,3.5,96,0.00,CLR,,0.01,WeatherDisplay:10.37,2013-06-17 02:42:00,
2013-06-16 21:47:00,74.5,73.6,29.02,WSW,245,2.2,3.5,97,0.00,CLR,,0.01,WeatherDisplay:10.37,2013-06-17 02:47:00,
2013-06-16 21:52:00,74.5,73.6,29.02,WSW,245,1.6,3.5,97,0.00,CLR,,0.01,WeatherDisplay:10.37,2013-06-17 02:52:00,
2013-06-16 21:57:00,74.3,73.4,29.02,WSW,245,2.2,3.5,97,0.00,CLR,,0.01,WeatherDisplay:10.37,2013-06-17 02:57:00,
2013-06-16 22:02:00,74.1,73.2,29.02,WSW,245,1.6,3.5,97,0.00,CLR,,0.01,WeatherDisplay:10.37,2013-06-17 03:02:00,
2013-06-16 22:07:00,74.1,73.2,29.02,WSW,245,1.6,3.5,97,0.00,CLR,,0.01,WeatherDisplay:10.37,2013-06-17 03:07:00,
2013-06-16 22:12:00,73.4,73.1,29.02,WSW,245,0.0,2.3,99,0.00,CLR,,0.01,WeatherDisplay:10.37,2013-06-17 03:12:00,
2013-06-16 22:17:00,73.2,72.9,29.03,WNW,290,0.0,0.0,99,0.00,CLR,,0.01,WeatherDisplay:10.37,2013-06-17 03:17:00,
2013-06-16 22:22:00,73.2,72.9,29.03,WSW,245,1.6,2.3,99,0.00,CLR,,0.01,WeatherDisplay:10.37,2013-06-17 03:22:00,
2013-06-16 22:27:00,73.0,72.7,29.03,WSW,245,1.6,2.3,99,0.00,CLR,,0.01,WeatherDisplay:10.37,2013-06-17 03:27:00,
2013-06-16 22:32:00,72.9,72.6,29.03,WSW,245,0.7,2.3,99,0.00,CLR,,0.01,WeatherDisplay:10.37,2013-06-17 03:32:00,
2013-06-16 22:37:00,72.5,72.2,29.02,WSW,245,0.0,0.0,99,0.00,CLR,,0.01,WeatherDisplay:10.37,2013-06-17 03:37:00,
2013-06-16 22:42:00,72.5,72.2,29.03,WSW,245,0.0,0.0,99,0.00,CLR,,0.01,WeatherDisplay:10.37,2013-06-17 03:42:00,
2013-06-16 22:47:00,72.7,72.4,29.02,WSW,245,0.0,0.0,99,0.00,CLR,,0.01,WeatherDisplay:10.37,2013-06-17 03:47:00,
2013-06-16 22:52:00,72.9,72.6,29.03,West,268,0.7,1.2,99,0.00,CLR,,0.01,WeatherDisplay:10.37,2013-06-17 03:52:00,
2013-06-16 22:57:00,72.9,72.6,29.03,WNW,290,0.7,2.3,99,0.00,CLR,,0.01,WeatherDisplay:10.37,2013-06-17 03:57:00,
2013-06-16 23:01:00,72.9,72.6,29.03,WSW,245,0.7,1.2,99,0.00,CLR,,0.01,WeatherDisplay:10.37,2013-06-17 04:01:00,
2013-06-16 23:03:00,72.9,72.6,29.03,WSW,245,0.7,1.2,99,0.00,CLR,,0.01,WeatherDisplay:10.37,2013-06-17 04:03:00,
2013-06-16 23:06:00,72.9,72.6,29.03,WSW,245,0.7,1.2,99,0.00,CLR,,0.01,WeatherDisplay:10.37,2013-06-17 04:06:00,
2013-06-16 23:11:00,72.3,72.0,29.03,WSW,245,0.0,0.0,99,0.00,CLR,,0.01,WeatherDisplay:10.37,2013-06-17 04:11:00,
2013-06-16 23:16:00,72.1,71.8,29.03,WSW,245,0.0,0.0,99,0.00,CLR,,0.01,WeatherDisplay:10.37,2013-06-17 04:16:00,
2013-06-16 23:21:00,72.1,71.8,29.04,WSW,245,1.6,3.5,99,0.00,CLR,,0.01,WeatherDisplay:10.37,2013-06-17 04:21:00,
2013-06-16 23:26:00,72.0,71.7,29.04,WSW,245,1.6,3.5,99,0.00,CLR,,0.01,WeatherDisplay:10.37,2013-06-17 04:26:00,
2013-06-16 23:31:00,72.0,71.7,29.03,WSW,245,1.6,3.5,99,0.00,CLR,,0.01,WeatherDisplay:10.37,2013-06-17 04:31:00,
2013-06-16 23:36:00,71.8,71.5,29.04,WSW,245,1.6,2.3,99,0.00,CLR,,0.01,WeatherDisplay:10.37,2013-06-17 04:36:00,
2013-06-16 23:41:00,71.8,71.5,29.04,WSW,245,0.7,2.3,99,0.00,CLR,,0.01,WeatherDisplay:10.37,2013-06-17 04:41:00,
2013-06-16 23:46:00,71.6,71.3,29.03,WSW,245,0.7,2.3,99,0.00,CLR,,0.01,WeatherDisplay:10.37,2013-06-17 04:46:00,
2013-06-16 23:51:00,71.6,71.3,29.03,WSW,245,0.7,1.2,99,0.00,CLR,,0.01,WeatherDisplay:10.37,2013-06-17 04:51:00,
2013-06-16 23:56:00,71.6,71.3,29.03,WSW,245,0.0,1.2,99,0.00,CLR,,0.01,WeatherDisplay:10.37,2013-06-17 04:56:00,